sensor_id;sensor_type;location;lat;lon;timestamp;pressure;altitude;pressure_sealevel;temperature;humidity
63819;BME280;49970;54.976;73.248;2023-03-13T00:01:21;102598.53;;;-10.82;78.84
63819;BME280;49970;54.976;73.248;2023-03-13T00:03:52;102596.75;;;-10.83;78.83
63819;BME280;49970;54.976;73.248;2023-03-13T00:06:24;102607.09;;;-10.81;79.17
63819;BME280;49970;54.976;73.248;2023-03-13T00:08:56;102611.75;;;-10.90;78.77
63819;BME280;49970;54.976;73.248;2023-03-13T00:11:28;102616.84;;;-10.90;78.18
63819;BME280;49970;54.976;73.248;2023-03-13T00:14:05;102627.63;;;-10.96;78.87
63819;BME280;49970;54.976;73.248;2023-03-13T00:16:33;102624.81;;;-11.00;78.08
63819;BME280;49970;54.976;73.248;2023-03-13T00:19:10;102619.41;;;-11.07;78.21
63819;BME280;49970;54.976;73.248;2023-03-13T00:21:36;102620.91;;;-11.10;78.42
63819;BME280;49970;54.976;73.248;2023-03-13T00:24:03;102626.31;;;-11.20;78.56
63819;BME280;49970;54.976;73.248;2023-03-13T00:26:30;102637.44;;;-11.20;78.87
63819;BME280;49970;54.976;73.248;2023-03-13T00:29:06;102639.38;;;-11.16;78.91
63819;BME280;49970;54.976;73.248;2023-03-13T00:31:32;102645.38;;;-11.15;78.88
63819;BME280;49970;54.976;73.248;2023-03-13T00:34:02;102643.75;;;-11.13;78.88
63819;BME280;49970;54.976;73.248;2023-03-13T00:36:33;102643.94;;;-11.10;79.18
63819;BME280;49970;54.976;73.248;2023-03-13T00:39:08;102629.84;;;-11.18;79.22
63819;BME280;49970;54.976;73.248;2023-03-13T00:41:36;102648.81;;;-11.15;78.87
63819;BME280;49970;54.976;73.248;2023-03-13T00:44:13;102650.22;;;-11.20;78.97
63819;BME280;49970;54.976;73.248;2023-03-13T00:46:49;102655.16;;;-11.23;79.17
63819;BME280;49970;54.976;73.248;2023-03-13T00:49:36;102646.44;;;-11.26;78.53
63819;BME280;49970;54.976;73.248;2023-03-13T00:52:51;102640.28;;;-11.30;79.39
63819;BME280;49970;54.976;73.248;2023-03-13T00:55:56;102642.91;;;-11.29;79.81
63819;BME280;49970;54.976;73.248;2023-03-13T00:59:25;102643.22;;;-11.39;79.06
63819;BME280;49970;54.976;73.248;2023-03-13T01:01:51;102651.94;;;-11.35;79.25
63819;BME280;49970;54.976;73.248;2023-03-13T01:04:19;102645.13;;;-11.35;79.04
63819;BME280;49970;54.976;73.248;2023-03-13T01:06:51;102645.94;;;-11.36;78.86
63819;BME280;49970;54.976;73.248;2023-03-13T01:09:17;102647.69;;;-11.35;78.94
63819;BME280;49970;54.976;73.248;2023-03-13T01:11:52;102661.34;;;-11.34;78.92
63819;BME280;49970;54.976;73.248;2023-03-13T01:14:23;102654.25;;;-11.40;78.66
63819;BME280;49970;54.976;73.248;2023-03-13T01:16:49;102651.69;;;-11.40;78.55
63819;BME280;49970;54.976;73.248;2023-03-13T01:19:16;102663.47;;;-11.42;78.98
63819;BME280;49970;54.976;73.248;2023-03-13T01:21:44;102665.16;;;-11.42;79.31
63819;BME280;49970;54.976;73.248;2023-03-13T01:24:11;102660.06;;;-11.42;79.23
63819;BME280;49970;54.976;73.248;2023-03-13T01:26:37;102660.06;;;-11.42;79.25
63819;BME280;49970;54.976;73.248;2023-03-13T01:29:04;102659.53;;;-11.51;78.86
63819;BME280;49970;54.976;73.248;2023-03-13T01:31:32;102657.59;;;-11.56;78.90
63819;BME280;49970;54.976;73.248;2023-03-13T01:34:02;102653.91;;;-11.61;79.21
63819;BME280;49970;54.976;73.248;2023-03-13T01:36:31;102653.66;;;-11.65;78.98
63819;BME280;49970;54.976;73.248;2023-03-13T01:38:59;102652.50;;;-11.70;79.33
63819;BME280;49970;54.976;73.248;2023-03-13T01:41:30;102650.03;;;-11.69;79.01
63819;BME280;49970;54.976;73.248;2023-03-13T01:43:57;102643.31;;;-11.67;79.12
63819;BME280;49970;54.976;73.248;2023-03-13T01:46:33;102645.19;;;-11.64;78.98
63819;BME280;49970;54.976;73.248;2023-03-13T01:49:08;102652.84;;;-11.64;79.04
63819;BME280;49970;54.976;73.248;2023-03-13T01:51:58;102645.13;;;-11.66;78.98
63819;BME280;49970;54.976;73.248;2023-03-13T01:54:58;102644.50;;;-11.62;78.95
63819;BME280;49970;54.976;73.248;2023-03-13T01:57:30;102644.94;;;-11.69;78.74
63819;BME280;49970;54.976;73.248;2023-03-13T02:00:07;102658.03;;;-11.63;79.04
63819;BME280;49970;54.976;73.248;2023-03-13T02:02:43;102663.16;;;-11.63;78.49
63819;BME280;49970;54.976;73.248;2023-03-13T02:05:11;102657.28;;;-11.62;78.76
63819;BME280;49970;54.976;73.248;2023-03-13T02:07:47;102656.38;;;-11.62;78.57
63819;BME280;49970;54.976;73.248;2023-03-13T02:10:16;102657.53;;;-11.57;78.68
63819;BME280;49970;54.976;73.248;2023-03-13T02:12:47;102654.09;;;-11.58;78.52
63819;BME280;49970;54.976;73.248;2023-03-13T02:15:17;102656.81;;;-11.55;78.71
63819;BME280;49970;54.976;73.248;2023-03-13T02:17:55;102654.34;;;-11.53;79.03
63819;BME280;49970;54.976;73.248;2023-03-13T02:20:28;102649.50;;;-11.48;78.45
63819;BME280;49970;54.976;73.248;2023-03-13T02:23:35;102649.56;;;-11.47;78.52
63819;BME280;49970;54.976;73.248;2023-03-13T02:26:00;102653.63;;;-11.50;78.79
63819;BME280;49970;54.976;73.248;2023-03-13T02:28:33;102650.38;;;-11.48;78.46
63819;BME280;49970;54.976;73.248;2023-03-13T02:31:04;102659.19;;;-11.43;78.76
63819;BME280;49970;54.976;73.248;2023-03-13T02:33:38;102661.97;;;-11.38;78.31
63819;BME280;49970;54.976;73.248;2023-03-13T02:36:16;102657.06;;;-11.35;78.38
63819;BME280;49970;54.976;73.248;2023-03-13T02:38:57;102656.34;;;-11.33;78.74
63819;BME280;49970;54.976;73.248;2023-03-13T02:41:27;102659.84;;;-11.31;78.64
63819;BME280;49970;54.976;73.248;2023-03-13T02:44:06;102655.81;;;-11.27;79.25
63819;BME280;49970;54.976;73.248;2023-03-13T02:46:44;102651.56;;;-11.26;78.80
63819;BME280;49970;54.976;73.248;2023-03-13T02:49:27;102658.84;;;-11.18;79.18
63819;BME280;49970;54.976;73.248;2023-03-13T02:52:13;102660.97;;;-11.11;79.33
63819;BME280;49970;54.976;73.248;2023-03-13T02:54:56;102657.78;;;-11.07;78.97
63819;BME280;49970;54.976;73.248;2023-03-13T02:57:23;102663.38;;;-10.97;79.65
63819;BME280;49970;54.976;73.248;2023-03-13T03:00:00;102659.50;;;-10.91;79.21
63819;BME280;49970;54.976;73.248;2023-03-13T03:02:28;102659.88;;;-10.83;79.75
63819;BME280;49970;54.976;73.248;2023-03-13T03:04:59;102656.84;;;-10.76;79.79
63819;BME280;49970;54.976;73.248;2023-03-13T03:07:26;102653.97;;;-10.66;80.16
63819;BME280;49970;54.976;73.248;2023-03-13T03:09:52;102655.66;;;-10.50;79.29
63819;BME280;49970;54.976;73.248;2023-03-13T03:12:20;102643.19;;;-10.44;79.77
63819;BME280;49970;54.976;73.248;2023-03-13T03:14:57;102643.19;;;-10.27;79.20
63819;BME280;49970;54.976;73.248;2023-03-13T03:17:32;102647.09;;;-10.16;79.45
63819;BME280;49970;54.976;73.248;2023-03-13T03:19:58;102643.56;;;-10.02;79.85
63819;BME280;49970;54.976;73.248;2023-03-13T03:22:25;102640.97;;;-9.86;79.76
63819;BME280;49970;54.976;73.248;2023-03-13T03:24:51;102639.78;;;-9.74;80.18
63819;BME280;49970;54.976;73.248;2023-03-13T03:27:17;102636.16;;;-9.62;80.09
63819;BME280;49970;54.976;73.248;2023-03-13T03:29:50;102633.22;;;-9.51;80.45
63819;BME280;49970;54.976;73.248;2023-03-13T03:32:16;102640.69;;;-9.38;80.06
63819;BME280;49970;54.976;73.248;2023-03-13T03:34:48;102644.13;;;-9.20;80.36
63819;BME280;49970;54.976;73.248;2023-03-13T03:37:23;102646.59;;;-9.04;80.02
63819;BME280;49970;54.976;73.248;2023-03-13T03:39:49;102648.19;;;-8.88;79.75
63819;BME280;49970;54.976;73.248;2023-03-13T03:42:15;102642.75;;;-8.76;79.86
63819;BME280;49970;54.976;73.248;2023-03-13T03:44:42;102645.84;;;-8.64;79.16
63819;BME280;49970;54.976;73.248;2023-03-13T03:47:10;102648.88;;;-8.53;78.83
63819;BME280;49970;54.976;73.248;2023-03-13T03:49:40;102651.88;;;-8.44;78.82
63819;BME280;49970;54.976;73.248;2023-03-13T03:52:09;102653.13;;;-8.34;78.44
63819;BME280;49970;54.976;73.248;2023-03-13T03:54:49;102659.63;;;-8.23;78.43
63819;BME280;49970;54.976;73.248;2023-03-13T03:57:16;102646.72;;;-8.04;78.73
63819;BME280;49970;54.976;73.248;2023-03-13T03:59:44;102647.56;;;-7.84;78.27
63819;BME280;49970;54.976;73.248;2023-03-13T04:02:10;102653.25;;;-7.70;77.68
63819;BME280;49970;54.976;73.248;2023-03-13T04:04:38;102662.38;;;-7.57;77.83
63819;BME280;49970;54.976;73.248;2023-03-13T04:07:35;102659.38;;;-7.47;76.79
63819;BME280;49970;54.976;73.248;2023-03-13T04:10:07;102662.34;;;-7.36;77.22
63819;BME280;49970;54.976;73.248;2023-03-13T04:12:40;102660.97;;;-7.28;76.57
63819;BME280;49970;54.976;73.248;2023-03-13T04:15:08;102650.03;;;-7.22;76.30
63819;BME280;49970;54.976;73.248;2023-03-13T04:17:35;102658.13;;;-7.13;76.61
63819;BME280;49970;54.976;73.248;2023-03-13T04:20:02;102636.75;;;-7.11;76.59
63819;BME280;49970;54.976;73.248;2023-03-13T04:22:30;102659.59;;;-6.97;76.63
63819;BME280;49970;54.976;73.248;2023-03-13T04:25:08;102647.06;;;-6.88;76.41
63819;BME280;49970;54.976;73.248;2023-03-13T04:27:35;102649.63;;;-6.88;76.01
63819;BME280;49970;54.976;73.248;2023-03-13T04:30:02;102654.97;;;-6.84;75.79
63819;BME280;49970;54.976;73.248;2023-03-13T04:33:04;102656.13;;;-6.75;75.92
63819;BME280;49970;54.976;73.248;2023-03-13T04:35:59;102667.53;;;-6.69;75.95
63819;BME280;49970;54.976;73.248;2023-03-13T04:39:05;102664.44;;;-6.60;75.86
63819;BME280;49970;54.976;73.248;2023-03-13T04:41:52;102665.41;;;-6.57;75.46
63819;BME280;49970;54.976;73.248;2023-03-13T04:44:38;102660.59;;;-6.47;75.22
63819;BME280;49970;54.976;73.248;2023-03-13T04:47:27;102659.97;;;-6.40;75.33
63819;BME280;49970;54.976;73.248;2023-03-13T04:50:10;102654.03;;;-6.39;75.10
63819;BME280;49970;54.976;73.248;2023-03-13T04:52:54;102662.84;;;-6.33;75.29
63819;BME280;49970;54.976;73.248;2023-03-13T04:55:44;102665.59;;;-6.28;75.05
63819;BME280;49970;54.976;73.248;2023-03-13T04:58:39;102663.31;;;-6.19;74.71
63819;BME280;49970;54.976;73.248;2023-03-13T05:01:15;102660.94;;;-6.14;74.97
63819;BME280;49970;54.976;73.248;2023-03-13T05:04:16;102673.28;;;-6.06;74.60
63819;BME280;49970;54.976;73.248;2023-03-13T05:07:07;102673.47;;;-5.99;74.77
63819;BME280;49970;54.976;73.248;2023-03-13T05:09:52;102673.69;;;-5.93;74.43
63819;BME280;49970;54.976;73.248;2023-03-13T05:12:41;102668.66;;;-5.89;74.60
63819;BME280;49970;54.976;73.248;2023-03-13T05:15:39;102667.22;;;-5.81;74.64
63819;BME280;49970;54.976;73.248;2023-03-13T05:18:22;102676.13;;;-5.71;74.95
63819;BME280;49970;54.976;73.248;2023-03-13T05:21:09;102672.84;;;-5.67;74.26
63819;BME280;49970;54.976;73.248;2023-03-13T05:23:35;102680.00;;;-5.58;74.77
63819;BME280;49970;54.976;73.248;2023-03-13T05:26:19;102668.25;;;-5.48;74.31
63819;BME280;49970;54.976;73.248;2023-03-13T05:28:51;102671.09;;;-5.41;73.89
63819;BME280;49970;54.976;73.248;2023-03-13T05:31:36;102675.66;;;-5.34;74.16
63819;BME280;49970;54.976;73.248;2023-03-13T05:34:20;102667.31;;;-5.25;73.86
63819;BME280;49970;54.976;73.248;2023-03-13T05:36:57;102670.88;;;-5.21;74.09
63819;BME280;49970;54.976;73.248;2023-03-13T05:39:42;102662.41;;;-5.16;73.67
63819;BME280;49970;54.976;73.248;2023-03-13T05:42:27;102666.00;;;-5.11;73.58
63819;BME280;49970;54.976;73.248;2023-03-13T05:45:14;102665.38;;;-5.04;74.43
63819;BME280;49970;54.976;73.248;2023-03-13T05:48:06;102661.31;;;-4.95;73.24
63819;BME280;49970;54.976;73.248;2023-03-13T05:50:53;102654.56;;;-4.92;73.71
63819;BME280;49970;54.976;73.248;2023-03-13T05:53:32;102659.16;;;-4.82;73.59
63819;BME280;49970;54.976;73.248;2023-03-13T05:56:38;102661.09;;;-4.74;73.62
63819;BME280;49970;54.976;73.248;2023-03-13T05:59:30;102655.34;;;-4.64;73.88
63819;BME280;49970;54.976;73.248;2023-03-13T06:02:21;102657.28;;;-4.57;73.46
63819;BME280;49970;54.976;73.248;2023-03-13T06:04:48;102654.06;;;-4.48;73.84
63819;BME280;49970;54.976;73.248;2023-03-13T06:07:14;102652.47;;;-4.45;73.71
63819;BME280;49970;54.976;73.248;2023-03-13T06:09:41;102650.81;;;-4.43;73.53
63819;BME280;49970;54.976;73.248;2023-03-13T06:12:18;102655.97;;;-4.43;73.04
63819;BME280;49970;54.976;73.248;2023-03-13T06:14:54;102646.50;;;-4.42;72.98
63819;BME280;49970;54.976;73.248;2023-03-13T06:17:43;102650.97;;;-4.37;73.01
63819;BME280;49970;54.976;73.248;2023-03-13T06:20:10;102652.91;;;-4.30;74.04
63819;BME280;49970;54.976;73.248;2023-03-13T06:22:36;102651.41;;;-4.21;73.85
63819;BME280;49970;54.976;73.248;2023-03-13T06:25:03;102648.94;;;-4.17;73.07
63819;BME280;49970;54.976;73.248;2023-03-13T06:27:29;102649.91;;;-4.12;73.01
63819;BME280;49970;54.976;73.248;2023-03-13T06:29:55;102642.38;;;-4.04;73.63
63819;BME280;49970;54.976;73.248;2023-03-13T06:32:22;102643.34;;;-3.99;73.47
63819;BME280;49970;54.976;73.248;2023-03-13T06:34:53;102648.75;;;-3.91;73.13
63819;BME280;49970;54.976;73.248;2023-03-13T06:37:19;102642.81;;;-3.86;73.15
63819;BME280;49970;54.976;73.248;2023-03-13T06:39:56;102644.63;;;-3.83;72.74
63819;BME280;49970;54.976;73.248;2023-03-13T06:42:22;102642.88;;;-3.84;73.04
63819;BME280;49970;54.976;73.248;2023-03-13T06:44:48;102638.72;;;-3.78;73.58
63819;BME280;49970;54.976;73.248;2023-03-13T06:47:14;102640.66;;;-3.69;73.35
63819;BME280;49970;54.976;73.248;2023-03-13T06:49:45;102639.97;;;-3.63;73.86
63819;BME280;49970;54.976;73.248;2023-03-13T06:52:12;102641.81;;;-3.58;73.61
63819;BME280;49970;54.976;73.248;2023-03-13T06:54:38;102634.06;;;-3.56;73.40
63819;BME280;49970;54.976;73.248;2023-03-13T06:57:04;102627.31;;;-3.51;73.49
63819;BME280;49970;54.976;73.248;2023-03-13T06:59:36;102635.19;;;-3.46;73.78
63819;BME280;49970;54.976;73.248;2023-03-13T07:02:10;102630.06;;;-3.43;73.95
63819;BME280;49970;54.976;73.248;2023-03-13T07:04:37;102624.09;;;-3.39;73.30
63819;BME280;49970;54.976;73.248;2023-03-13T07:07:04;102624.16;;;-3.38;73.52
63819;BME280;49970;54.976;73.248;2023-03-13T07:09:40;102628.59;;;-3.32;73.77
63819;BME280;49970;54.976;73.248;2023-03-13T07:12:06;102627.03;;;-3.26;73.78
63819;BME280;49970;54.976;73.248;2023-03-13T07:14:32;102627.97;;;-3.22;74.05
63819;BME280;49970;54.976;73.248;2023-03-13T07:16:59;102622.81;;;-3.20;74.13
63819;BME280;49970;54.976;73.248;2023-03-13T07:19:35;102621.09;;;-3.20;74.17
63819;BME280;49970;54.976;73.248;2023-03-13T07:22:06;102623.78;;;-3.17;74.32
63819;BME280;49970;54.976;73.248;2023-03-13T07:24:32;102621.28;;;-3.12;74.27
63819;BME280;49970;54.976;73.248;2023-03-13T07:27:08;102611.88;;;-3.09;74.49
63819;BME280;49970;54.976;73.248;2023-03-13T07:29:39;102616.31;;;-3.02;74.52
63819;BME280;49970;54.976;73.248;2023-03-13T07:32:11;102600.75;;;-3.03;74.54
63819;BME280;49970;54.976;73.248;2023-03-13T07:34:37;102613.03;;;-2.93;74.74
63819;BME280;49970;54.976;73.248;2023-03-13T07:37:03;102608.81;;;-2.89;74.95
63819;BME280;49970;54.976;73.248;2023-03-13T07:39:39;102607.22;;;-2.84;75.18
63819;BME280;49970;54.976;73.248;2023-03-13T07:42:05;102603.84;;;-2.79;75.59
63819;BME280;49970;54.976;73.248;2023-03-13T07:44:33;102599.59;;;-2.75;75.49
63819;BME280;49970;54.976;73.248;2023-03-13T07:47:09;102604.81;;;-2.73;75.67
63819;BME280;49970;54.976;73.248;2023-03-13T07:49:35;102600.56;;;-2.71;75.75
63819;BME280;49970;54.976;73.248;2023-03-13T07:52:06;102602.41;;;-2.64;75.98
63819;BME280;49970;54.976;73.248;2023-03-13T07:54:32;102599.03;;;-2.60;75.91
63819;BME280;49970;54.976;73.248;2023-03-13T07:57:00;102594.78;;;-2.57;76.22
63819;BME280;49970;54.976;73.248;2023-03-13T07:59:37;102595.69;;;-2.55;76.30
63819;BME280;49970;54.976;73.248;2023-03-13T08:02:03;102591.41;;;-2.53;76.19
63819;BME280;49970;54.976;73.248;2023-03-13T08:04:39;102591.53;;;-2.46;76.16
63819;BME280;49970;54.976;73.248;2023-03-13T08:07:09;102574.25;;;-2.46;76.59
63819;BME280;49970;54.976;73.248;2023-03-13T08:09:36;102592.59;;;-2.35;76.80
63819;BME280;49970;54.976;73.248;2023-03-13T08:12:03;102582.25;;;-2.34;76.25
63819;BME280;49970;54.976;73.248;2023-03-13T08:14:29;102575.34;;;-2.33;76.74
63819;BME280;49970;54.976;73.248;2023-03-13T08:16:55;102568.56;;;-2.25;76.65
63819;BME280;49970;54.976;73.248;2023-03-13T08:19:21;102569.44;;;-2.24;76.67
63819;BME280;49970;54.976;73.248;2023-03-13T08:21:48;102573.84;;;-2.20;76.73
63819;BME280;49970;54.976;73.248;2023-03-13T08:24:14;102567.00;;;-2.15;77.09
63819;BME280;49970;54.976;73.248;2023-03-13T08:26:43;102568.78;;;-2.13;76.88
63819;BME280;49970;54.976;73.248;2023-03-13T08:29:12;102569.66;;;-2.12;76.92
63819;BME280;49970;54.976;73.248;2023-03-13T08:31:48;102560.16;;;-2.10;77.22
63819;BME280;49970;54.976;73.248;2023-03-13T08:34:17;102556.75;;;-2.06;77.09
63819;BME280;49970;54.976;73.248;2023-03-13T08:36:44;102571.53;;;-2.04;76.97
63819;BME280;49970;54.976;73.248;2023-03-13T08:39:12;102566.34;;;-2.04;77.08
63819;BME280;49970;54.976;73.248;2023-03-13T08:41:39;102557.63;;;-2.06;77.14
63819;BME280;49970;54.976;73.248;2023-03-13T08:44:17;102555.09;;;-2.04;77.23
63819;BME280;49970;54.976;73.248;2023-03-13T08:46:45;102555.09;;;-2.04;77.33
63819;BME280;49970;54.976;73.248;2023-03-13T08:49:13;102561.22;;;-2.01;77.36
63819;BME280;49970;54.976;73.248;2023-03-13T08:51:52;102557.75;;;-1.99;77.23
63819;BME280;49970;54.976;73.248;2023-03-13T08:54:18;102549.09;;;-2.00;77.58
63819;BME280;49970;54.976;73.248;2023-03-13T08:56:44;102548.25;;;-1.97;77.49
63819;BME280;49970;54.976;73.248;2023-03-13T08:59:11;102547.38;;;-1.99;77.48
63819;BME280;49970;54.976;73.248;2023-03-13T09:01:37;102542.13;;;-2.03;77.32
63819;BME280;49970;54.976;73.248;2023-03-13T09:04:04;102534.31;;;-2.04;77.23
63819;BME280;49970;54.976;73.248;2023-03-13T09:06:32;102538.72;;;-2.00;77.29
63819;BME280;49970;54.976;73.248;2023-03-13T09:09:11;102538.72;;;-1.97;77.58
63819;BME280;49970;54.976;73.248;2023-03-13T09:11:39;102540.50;;;-1.96;77.42
63819;BME280;49970;54.976;73.248;2023-03-13T09:14:15;102544.84;;;-1.96;77.53
63819;BME280;49970;54.976;73.248;2023-03-13T09:16:51;102543.13;;;-1.94;77.70
63819;BME280;49970;54.976;73.248;2023-03-13T09:19:23;102544.00;;;-1.92;77.79
63819;BME280;49970;54.976;73.248;2023-03-13T09:21:49;102536.25;;;-1.91;77.61
63819;BME280;49970;54.976;73.248;2023-03-13T09:24:15;102544.91;;;-1.90;77.36
63819;BME280;49970;54.976;73.248;2023-03-13T09:26:42;102538.84;;;-1.91;77.52
63819;BME280;49970;54.976;73.248;2023-03-13T09:29:08;102547.50;;;-1.90;77.50
63819;BME280;49970;54.976;73.248;2023-03-13T09:31:45;102544.91;;;-1.92;77.48
63819;BME280;49970;54.976;73.248;2023-03-13T09:34:11;102540.56;;;-1.91;77.37
63819;BME280;49970;54.976;73.248;2023-03-13T09:36:37;102544.91;;;-1.92;77.40
63819;BME280;49970;54.976;73.248;2023-03-13T09:39:07;102549.19;;;-1.92;77.47
63819;BME280;49970;54.976;73.248;2023-03-13T09:41:38;102546.59;;;-1.92;77.37
63819;BME280;49970;54.976;73.248;2023-03-13T09:44:21;102541.38;;;-1.94;77.21
63819;BME280;49970;54.976;73.248;2023-03-13T09:52:08;102537.91;;;-1.94;77.55
63819;BME280;49970;54.976;73.248;2023-03-13T09:54:47;102538.78;;;-1.95;77.93
63819;BME280;49970;54.976;73.248;2023-03-13T09:57:35;102545.69;;;-1.96;77.93
63819;BME280;49970;54.976;73.248;2023-03-13T10:00:24;102543.09;;;-1.96;77.78
63819;BME280;49970;54.976;73.248;2023-03-13T10:03:03;102537.88;;;-1.97;77.79
63819;BME280;49970;54.976;73.248;2023-03-13T10:05:37;102538.78;;;-1.95;77.89
63819;BME280;49970;54.976;73.248;2023-03-13T10:10:45;102532.72;;;-1.94;78.05
63819;BME280;49970;54.976;73.248;2023-03-13T10:15:50;102530.13;;;-1.96;77.77
63819;BME280;49970;54.976;73.248;2023-03-13T10:18:20;102530.94;;;-1.97;78.10
63819;BME280;49970;54.976;73.248;2023-03-13T10:20:52;102524.00;;;-1.99;77.89
63819;BME280;49970;54.976;73.248;2023-03-13T10:25:57;102533.47;;;-2.02;77.90
63819;BME280;49970;54.976;73.248;2023-03-13T10:28:28;102520.47;;;-2.03;77.81
63819;BME280;49970;54.976;73.248;2023-03-13T10:31:31;102517.88;;;-2.05;77.79
63819;BME280;49970;54.976;73.248;2023-03-13T10:34:09;102523.06;;;-2.05;77.61
63819;BME280;49970;54.976;73.248;2023-03-13T10:36:47;102521.25;;;-2.09;77.61
63819;BME280;49970;54.976;73.248;2023-03-13T10:39:15;102519.53;;;-2.08;77.77
63819;BME280;49970;54.976;73.248;2023-03-13T10:41:58;102525.53;;;-2.11;77.57
63819;BME280;49970;54.976;73.248;2023-03-13T10:44:34;102529.78;;;-2.14;77.43
63819;BME280;49970;54.976;73.248;2023-03-13T10:47:01;102526.34;;;-2.13;77.53
63819;BME280;49970;54.976;73.248;2023-03-13T10:49:30;102526.34;;;-2.15;77.68
63819;BME280;49970;54.976;73.248;2023-03-13T10:52:33;102517.66;;;-2.17;77.57
63819;BME280;49970;54.976;73.248;2023-03-13T10:55:21;102508.09;;;-2.18;77.41
63819;BME280;49970;54.976;73.248;2023-03-13T10:57:58;102508.09;;;-2.18;77.34
63819;BME280;49970;54.976;73.248;2023-03-13T11:00:37;102502.88;;;-2.21;77.11
63819;BME280;49970;54.976;73.248;2023-03-13T11:03:19;102509.78;;;-2.21;77.15
63819;BME280;49970;54.976;73.248;2023-03-13T11:05:54;102501.97;;;-2.23;77.31
63819;BME280;49970;54.976;73.248;2023-03-13T11:08:22;102501.91;;;-2.26;76.72
63819;BME280;49970;54.976;73.248;2023-03-13T11:10:58;102494.00;;;-2.34;76.97
63819;BME280;49970;54.976;73.248;2023-03-13T11:13:40;102494.84;;;-2.35;76.58
63819;BME280;49970;54.976;73.248;2023-03-13T11:16:47;102490.44;;;-2.39;76.61
63819;BME280;49970;54.976;73.248;2023-03-13T11:25:03;102478.22;;;-2.46;76.95
63819;BME280;49970;54.976;73.248;2023-03-13T11:31:14;102481.56;;;-2.52;76.38
63819;BME280;49970;54.976;73.248;2023-03-13T11:36:45;102459.78;;;-2.63;76.79
63819;BME280;49970;54.976;73.248;2023-03-13T11:54:02;102446.59;;;-2.73;76.68
63819;BME280;49970;54.976;73.248;2023-03-13T11:58:48;102437.94;;;-2.76;76.71
63819;BME280;49970;54.976;73.248;2023-03-13T12:01:33;102434.34;;;-2.81;76.67
63819;BME280;49970;54.976;73.248;2023-03-13T12:04:24;102435.16;;;-2.85;76.45
63819;BME280;49970;54.976;73.248;2023-03-13T12:09:53;102436.94;;;-2.84;76.63
63819;BME280;49970;54.976;73.248;2023-03-13T12:18:05;102424.47;;;-3.03;76.02
63819;BME280;49970;54.976;73.248;2023-03-13T12:20:40;102419.13;;;-3.11;75.97
63819;BME280;49970;54.976;73.248;2023-03-13T12:23:19;102424.25;;;-3.14;76.16
63819;BME280;49970;54.976;73.248;2023-03-13T12:34:17;102417.06;;;-3.29;76.49
63819;BME280;49970;54.976;73.248;2023-03-13T12:39:30;102415.22;;;-3.34;75.99
63819;BME280;49970;54.976;73.248;2023-03-13T12:45:17;102409.81;;;-3.46;76.18
63819;BME280;49970;54.976;73.248;2023-03-13T12:48:08;102415.75;;;-3.51;76.79
63819;BME280;49970;54.976;73.248;2023-03-13T12:59:59;102415.25;;;-3.75;76.66
63819;BME280;49970;54.976;73.248;2023-03-13T13:02:34;102408.25;;;-3.79;77.08
63819;BME280;49970;54.976;73.248;2023-03-13T13:05:05;102408.94;;;-3.86;76.84
63819;BME280;49970;54.976;73.248;2023-03-13T13:07:36;102410.66;;;-3.87;77.14
63819;BME280;49970;54.976;73.248;2023-03-13T13:12:42;102404.47;;;-3.93;77.60
63819;BME280;49970;54.976;73.248;2023-03-13T13:15:24;102410.41;;;-3.99;77.68
63819;BME280;49970;54.976;73.248;2023-03-13T13:18:13;102408.50;;;-4.06;77.63
63819;BME280;49970;54.976;73.248;2023-03-13T13:23:29;102404.09;;;-4.10;77.96
63819;BME280;49970;54.976;73.248;2023-03-13T13:28:52;102400.31;;;-4.24;77.55
63819;BME280;49970;54.976;73.248;2023-03-13T13:31:44;102404.56;;;-4.28;77.27
63819;BME280;49970;54.976;73.248;2023-03-13T13:36:54;102396.47;;;-4.42;77.74
63819;BME280;49970;54.976;73.248;2023-03-13T13:39:44;102392.94;;;-4.45;77.27
63819;BME280;49970;54.976;73.248;2023-03-13T13:47:47;102397.06;;;-4.54;77.51
63819;BME280;49970;54.976;73.248;2023-03-13T13:50:25;102397.81;;;-4.58;78.27
63819;BME280;49970;54.976;73.248;2023-03-13T13:53:32;102389.94;;;-4.62;78.38
63819;BME280;49970;54.976;73.248;2023-03-13T14:01:34;102388.00;;;-4.71;77.87
63819;BME280;49970;54.976;73.248;2023-03-13T14:04:30;102384.38;;;-4.78;78.21
63819;BME280;49970;54.976;73.248;2023-03-13T14:07:09;102387.69;;;-4.83;78.35
63819;BME280;49970;54.976;73.248;2023-03-13T14:17:54;102378.66;;;-5.01;78.88
63819;BME280;49970;54.976;73.248;2023-03-13T14:20:32;102375.13;;;-5.03;79.49
63819;BME280;49970;54.976;73.248;2023-03-13T14:23:07;102374.16;;;-5.08;79.21
63819;BME280;49970;54.976;73.248;2023-03-13T14:25:45;102368.00;;;-5.11;79.18
63819;BME280;49970;54.976;73.248;2023-03-13T14:28:23;102369.59;;;-5.16;79.29
63819;BME280;49970;54.976;73.248;2023-03-13T14:30:55;102368.69;;;-5.18;79.38
63819;BME280;49970;54.976;73.248;2023-03-13T14:33:34;102367.69;;;-5.23;79.49
63819;BME280;49970;54.976;73.248;2023-03-13T14:36:04;102353.78;;;-5.29;79.77
63819;BME280;49970;54.976;73.248;2023-03-13T14:38:33;102355.41;;;-5.32;80.48
63819;BME280;49970;54.976;73.248;2023-03-13T14:41:05;102358.75;;;-5.36;79.91
63819;BME280;49970;54.976;73.248;2023-03-13T14:43:43;102363.00;;;-5.38;80.78
63819;BME280;49970;54.976;73.248;2023-03-13T14:46:26;102355.94;;;-5.44;80.36
63819;BME280;49970;54.976;73.248;2023-03-13T14:49:27;102363.50;;;-5.52;81.04
63819;BME280;49970;54.976;73.248;2023-03-13T14:52:05;102345.97;;;-5.63;80.72
63819;BME280;49970;54.976;73.248;2023-03-13T14:54:57;102352.00;;;-5.63;81.46
63819;BME280;49970;54.976;73.248;2023-03-13T14:57:36;102341.59;;;-5.66;81.05
63819;BME280;49970;54.976;73.248;2023-03-13T15:08:40;102334.44;;;-5.76;81.74
63819;BME280;49970;54.976;73.248;2023-03-13T15:12:03;102324.00;;;-5.79;81.44